sensor_id;sensor_type;location;lat;lon;timestamp;pressure;altitude;pressure_sealevel;temperature;humidity
4024;BME280;2026;51.002;13.668;2022-12-29T00:01:25;98458.34;;;9.26;62.64
4024;BME280;2026;51.002;13.668;2022-12-29T00:06:30;98461.31;;;9.29;62.81
4024;BME280;2026;51.002;13.668;2022-12-29T00:11:33;98463.50;;;9.32;62.89
4024;BME280;2026;51.002;13.668;2022-12-29T00:16:37;98465.81;;;9.41;62.39
4024;BME280;2026;51.002;13.668;2022-12-29T00:21:41;98477.09;;;9.41;62.81
4024;BME280;2026;51.002;13.668;2022-12-29T00:27:11;98445.34;;;9.37;63.06
4024;BME280;2026;51.002;13.668;2022-12-29T00:32:32;98443.53;;;9.57;62.67
4024;BME280;2026;51.002;13.668;2022-12-29T00:37:55;98445.91;;;9.58;62.29
4024;BME280;2026;51.002;13.668;2022-12-29T00:43:17;98442.78;;;9.49;63.29
4024;BME280;2026;51.002;13.668;2022-12-29T00:48:37;98426.38;;;9.42;64.59
4024;BME280;2026;51.002;13.668;2022-12-29T00:53:59;98408.09;;;9.35;65.80
4024;BME280;2026;51.002;13.668;2022-12-29T00:59:02;98411.25;;;9.26;68.27
4024;BME280;2026;51.002;13.668;2022-12-29T01:04:06;98411.31;;;9.19;69.64
4024;BME280;2026;51.002;13.668;2022-12-29T01:09:10;98414.38;;;8.97;71.38
4024;BME280;2026;51.002;13.668;2022-12-29T01:14:36;98413.94;;;9.00;71.57
4024;BME280;2026;51.002;13.668;2022-12-29T01:19:39;98416.38;;;8.95;72.76
4024;BME280;2026;51.002;13.668;2022-12-29T01:24:44;98419.25;;;8.93;73.03
4024;BME280;2026;51.002;13.668;2022-12-29T01:29:47;98408.25;;;9.03;71.32
4024;BME280;2026;51.002;13.668;2022-12-29T01:34:50;98402.00;;;9.04;71.37
4024;BME280;2026;51.002;13.668;2022-12-29T01:39:54;98391.34;;;9.06;71.64
4024;BME280;2026;51.002;13.668;2022-12-29T01:44:58;98395.19;;;9.03;72.23
4024;BME280;2026;51.002;13.668;2022-12-29T01:50:08;98413.94;;;9.19;71.76
4024;BME280;2026;51.002;13.668;2022-12-29T01:55:14;98400.72;;;9.14;71.73
4024;BME280;2026;51.002;13.668;2022-12-29T02:00:20;98400.00;;;9.06;72.78
4024;BME280;2026;51.002;13.668;2022-12-29T02:05:27;98386.38;;;9.16;72.78
4024;BME280;2026;51.002;13.668;2022-12-29T02:10:34;98369.47;;;9.19;72.10
4024;BME280;2026;51.002;13.668;2022-12-29T02:15:48;98355.38;;;9.20;71.84
4024;BME280;2026;51.002;13.668;2022-12-29T02:21:18;98350.44;;;9.30;71.64
4024;BME280;2026;51.002;13.668;2022-12-29T02:26:37;98341.56;;;9.31;72.03
4024;BME280;2026;51.002;13.668;2022-12-29T02:31:51;98327.72;;;9.43;71.83
4024;BME280;2026;51.002;13.668;2022-12-29T02:37:02;98334.13;;;9.47;71.04
4024;BME280;2026;51.002;13.668;2022-12-29T02:42:10;98347.94;;;9.54;70.78
4024;BME280;2026;51.002;13.668;2022-12-29T02:47:22;98355.03;;;9.66;70.12
4024;BME280;2026;51.002;13.668;2022-12-29T02:52:30;98341.59;;;9.62;69.89
4024;BME280;2026;51.002;13.668;2022-12-29T02:57:35;98343.53;;;9.67;70.26
4024;BME280;2026;51.002;13.668;2022-12-29T03:02:57;98345.19;;;9.80;69.77
4024;BME280;2026;51.002;13.668;2022-12-29T03:08:08;98341.00;;;10.02;68.31
4024;BME280;2026;51.002;13.668;2022-12-29T03:13:22;98347.06;;;10.15;67.88
4024;BME280;2026;51.002;13.668;2022-12-29T03:18:58;98332.59;;;10.24;67.43
4024;BME280;2026;51.002;13.668;2022-12-29T03:24:03;98334.88;;;10.32;66.95
4024;BME280;2026;51.002;13.668;2022-12-29T03:29:08;98327.94;;;10.38;66.55
4024;BME280;2026;51.002;13.668;2022-12-29T03:34:15;98319.28;;;10.50;66.37
4024;BME280;2026;51.002;13.668;2022-12-29T03:39:20;98308.13;;;10.42;67.03
4024;BME280;2026;51.002;13.668;2022-12-29T03:44:32;98306.06;;;10.44;66.49
4024;BME280;2026;51.002;13.668;2022-12-29T03:49:38;98299.22;;;10.43;67.01
4024;BME280;2026;51.002;13.668;2022-12-29T03:54:42;98303.34;;;10.39;67.28
4024;BME280;2026;51.002;13.668;2022-12-29T03:59:46;98305.63;;;10.48;66.91
4024;BME280;2026;51.002;13.668;2022-12-29T04:04:50;98294.31;;;10.47;66.96
4024;BME280;2026;51.002;13.668;2022-12-29T04:09:53;98298.44;;;10.55;67.12
4024;BME280;2026;51.002;13.668;2022-12-29T04:14:59;98290.78;;;10.53;67.14
4024;BME280;2026;51.002;13.668;2022-12-29T04:20:04;98276.88;;;10.53;67.38
4024;BME280;2026;51.002;13.668;2022-12-29T04:25:27;98269.13;;;10.58;67.38
4024;BME280;2026;51.002;13.668;2022-12-29T04:30:31;98277.66;;;10.65;67.35
4024;BME280;2026;51.002;13.668;2022-12-29T04:35:43;98280.97;;;10.60;68.04
4024;BME280;2026;51.002;13.668;2022-12-29T04:40:47;98276.75;;;10.59;68.00
4024;BME280;2026;51.002;13.668;2022-12-29T04:45:53;98276.66;;;10.54;68.26
4024;BME280;2026;51.002;13.668;2022-12-29T04:51:03;98289.06;;;10.59;68.10
4024;BME280;2026;51.002;13.668;2022-12-29T04:56:11;98288.28;;;10.58;68.12
4024;BME280;2026;51.002;13.668;2022-12-29T05:01:15;98303.56;;;10.50;69.08
4024;BME280;2026;51.002;13.668;2022-12-29T05:06:20;98309.16;;;10.29;71.52
4024;BME280;2026;51.002;13.668;2022-12-29T05:11:24;98326.56;;;10.24;71.42
4024;BME280;2026;51.002;13.668;2022-12-29T05:16:28;98327.13;;;10.26;71.44
4024;BME280;2026;51.002;13.668;2022-12-29T05:21:33;98329.19;;;10.36;70.80
4024;BME280;2026;51.002;13.668;2022-12-29T05:26:36;98322.38;;;10.35;70.63
4024;BME280;2026;51.002;13.668;2022-12-29T05:31:45;98332.16;;;10.39;70.71
4024;BME280;2026;51.002;13.668;2022-12-29T05:36:50;98329.06;;;10.42;70.45
4024;BME280;2026;51.002;13.668;2022-12-29T05:41:53;98340.13;;;10.44;70.40
4024;BME280;2026;51.002;13.668;2022-12-29T05:47:01;98345.59;;;10.55;69.72
4024;BME280;2026;51.002;13.668;2022-12-29T05:52:18;98339.09;;;10.45;70.22
4024;BME280;2026;51.002;13.668;2022-12-29T05:57:21;98334.88;;;10.56;69.58
4024;BME280;2026;51.002;13.668;2022-12-29T06:02:36;98354.03;;;10.45;70.49
4024;BME280;2026;51.002;13.668;2022-12-29T06:07:41;98357.69;;;10.56;70.11
4024;BME280;2026;51.002;13.668;2022-12-29T06:12:48;98345.25;;;10.51;70.15
4024;BME280;2026;51.002;13.668;2022-12-29T06:17:51;98366.78;;;10.53;70.00
4024;BME280;2026;51.002;13.668;2022-12-29T06:22:56;98349.00;;;10.55;70.17
4024;BME280;2026;51.002;13.668;2022-12-29T06:27:59;98341.06;;;10.50;70.05
4024;BME280;2026;51.002;13.668;2022-12-29T06:33:02;98342.31;;;10.48;69.66
4024;BME280;2026;51.002;13.668;2022-12-29T06:38:07;98328.59;;;10.45;69.74
4024;BME280;2026;51.002;13.668;2022-12-29T06:43:10;98324.06;;;10.41;69.32
4024;BME280;2026;51.002;13.668;2022-12-29T06:48:51;98315.41;;;10.40;69.00
4024;BME280;2026;51.002;13.668;2022-12-29T06:53:55;98316.53;;;10.21;69.94
4024;BME280;2026;51.002;13.668;2022-12-29T06:58:58;98316.53;;;10.44;68.76
4024;BME280;2026;51.002;13.668;2022-12-29T07:04:02;98317.69;;;10.37;68.94
4024;BME280;2026;51.002;13.668;2022-12-29T07:09:07;98315.63;;;10.27;69.55
4024;BME280;2026;51.002;13.668;2022-12-29T07:14:10;98339.34;;;10.32;69.30
4024;BME280;2026;51.002;13.668;2022-12-29T07:19:13;98341.41;;;10.30;69.33
4024;BME280;2026;51.002;13.668;2022-12-29T07:24:19;98341.06;;;10.38;69.39
4024;BME280;2026;51.002;13.668;2022-12-29T07:29:22;98352.88;;;10.29;70.21
4024;BME280;2026;51.002;13.668;2022-12-29T07:34:24;98347.63;;;10.41;69.87
4024;BME280;2026;51.002;13.668;2022-12-29T07:39:29;98325.56;;;10.49;69.92
4024;BME280;2026;51.002;13.668;2022-12-29T07:44:32;98322.25;;;10.53;69.54
4024;BME280;2026;51.002;13.668;2022-12-29T07:50:05;98337.84;;;10.60;69.15
4024;BME280;2026;51.002;13.668;2022-12-29T07:55:10;98324.50;;;10.62;69.20
4024;BME280;2026;51.002;13.668;2022-12-29T08:00:14;98332.03;;;10.70;68.99
4024;BME280;2026;51.002;13.668;2022-12-29T08:05:17;98330.53;;;10.86;67.97
4024;BME280;2026;51.002;13.668;2022-12-29T08:10:22;98349.13;;;10.72;67.92
4024;BME280;2026;51.002;13.668;2022-12-29T08:15:25;98359.38;;;10.74;67.70
4024;BME280;2026;51.002;13.668;2022-12-29T08:20:33;98359.94;;;10.76;67.52
4024;BME280;2026;51.002;13.668;2022-12-29T08:25:37;98359.84;;;10.71;67.15
4024;BME280;2026;51.002;13.668;2022-12-29T08:30:40;98349.25;;;10.66;67.30
4024;BME280;2026;51.002;13.668;2022-12-29T08:35:44;98354.81;;;10.81;66.19
4024;BME280;2026;51.002;13.668;2022-12-29T08:40:48;98357.88;;;10.78;66.13
4024;BME280;2026;51.002;13.668;2022-12-29T08:45:51;98356.63;;;10.81;65.84
4024;BME280;2026;51.002;13.668;2022-12-29T08:50:54;98359.81;;;10.83;65.19
4024;BME280;2026;51.002;13.668;2022-12-29T08:55:59;98353.19;;;10.80;65.38
4024;BME280;2026;51.002;13.668;2022-12-29T09:01:17;98355.72;;;10.75;65.72
4024;BME280;2026;51.002;13.668;2022-12-29T09:06:20;98368.38;;;10.90;65.06
4024;BME280;2026;51.002;13.668;2022-12-29T09:11:25;98352.63;;;10.90;64.85
4024;BME280;2026;51.002;13.668;2022-12-29T09:16:28;98347.72;;;10.94;65.17
4024;BME280;2026;51.002;13.668;2022-12-29T09:21:31;98349.09;;;10.96;65.62
4024;BME280;2026;51.002;13.668;2022-12-29T09:26:36;98349.22;;;10.90;65.81
4024;BME280;2026;51.002;13.668;2022-12-29T09:31:47;98354.53;;;11.07;64.90
4024;BME280;2026;51.002;13.668;2022-12-29T09:36:50;98339.59;;;11.07;65.26
4024;BME280;2026;51.002;13.668;2022-12-29T09:42:00;98347.91;;;11.16;64.91
4024;BME280;2026;51.002;13.668;2022-12-29T09:47:09;98338.13;;;10.99;65.22
4024;BME280;2026;51.002;13.668;2022-12-29T09:52:19;98334.34;;;11.07;64.60
4024;BME280;2026;51.002;13.668;2022-12-29T09:57:27;98333.31;;;11.08;64.35
4024;BME280;2026;51.002;13.668;2022-12-29T10:02:37;98342.66;;;11.16;64.09
4024;BME280;2026;51.002;13.668;2022-12-29T10:07:47;98344.25;;;11.17;63.73
4024;BME280;2026;51.002;13.668;2022-12-29T10:13:05;98348.28;;;11.37;62.44
4024;BME280;2026;51.002;13.668;2022-12-29T10:18:28;98346.34;;;11.44;61.93
4024;BME280;2026;51.002;13.668;2022-12-29T10:23:39;98358.88;;;11.54;61.30
4024;BME280;2026;51.002;13.668;2022-12-29T10:28:46;98342.31;;;11.53;61.92
4024;BME280;2026;51.002;13.668;2022-12-29T10:33:55;98347.28;;;11.67;61.28
4024;BME280;2026;51.002;13.668;2022-12-29T10:39:05;98334.09;;;11.79;61.16
4024;BME280;2026;51.002;13.668;2022-12-29T10:44:14;98328.22;;;11.89;61.17
4024;BME280;2026;51.002;13.668;2022-12-29T10:49:19;98323.56;;;12.13;61.27
4024;BME280;2026;51.002;13.668;2022-12-29T10:54:26;98306.34;;;12.39;59.87
4024;BME280;2026;51.002;13.668;2022-12-29T10:59:33;98301.91;;;12.23;61.15
4024;BME280;2026;51.002;13.668;2022-12-29T11:04:48;98315.16;;;12.28;60.80
4024;BME280;2026;51.002;13.668;2022-12-29T11:09:54;98290.66;;;12.45;60.71
4024;BME280;2026;51.002;13.668;2022-12-29T11:15:14;98286.22;;;12.68;60.54
4024;BME280;2026;51.002;13.668;2022-12-29T11:20:32;98279.72;;;12.53;60.46
4024;BME280;2026;51.002;13.668;2022-12-29T11:25:36;98290.94;;;12.65;60.53
4024;BME280;2026;51.002;13.668;2022-12-29T11:30:41;98275.88;;;12.61;60.82
4024;BME280;2026;51.002;13.668;2022-12-29T11:35:44;98287.38;;;12.55;60.93
4024;BME280;2026;51.002;13.668;2022-12-29T11:40:47;98298.25;;;12.63;60.74
4024;BME280;2026;51.002;13.668;2022-12-29T11:45:52;98292.44;;;12.61;60.81
4024;BME280;2026;51.002;13.668;2022-12-29T11:50:58;98296.38;;;12.81;60.37
4024;BME280;2026;51.002;13.668;2022-12-29T11:56:04;98295.34;;;12.82;60.71
4024;BME280;2026;51.002;13.668;2022-12-29T12:01:16;98287.88;;;12.74;60.54
4024;BME280;2026;51.002;13.668;2022-12-29T12:06:20;98284.31;;;12.63;60.38
4024;BME280;2026;51.002;13.668;2022-12-29T12:11:28;98281.69;;;12.63;60.54
4024;BME280;2026;51.002;13.668;2022-12-29T12:16:41;98267.44;;;12.59;60.55
4024;BME280;2026;51.002;13.668;2022-12-29T12:21:50;98271.09;;;12.58;60.27
4024;BME280;2026;51.002;13.668;2022-12-29T12:26:58;98270.38;;;12.62;60.31
4024;BME280;2026;51.002;13.668;2022-12-29T12:32:11;98279.53;;;12.60;60.28
4024;BME280;2026;51.002;13.668;2022-12-29T12:37:43;98269.41;;;12.69;59.64
4024;BME280;2026;51.002;13.668;2022-12-29T12:42:54;98272.88;;;12.74;59.73
4024;BME280;2026;51.002;13.668;2022-12-29T12:48:14;98267.88;;;12.73;60.32
4024;BME280;2026;51.002;13.668;2022-12-29T12:53:29;98257.16;;;12.79;59.23
4024;BME280;2026;51.002;13.668;2022-12-29T12:58:43;98255.81;;;12.77;58.91
4024;BME280;2026;51.002;13.668;2022-12-29T13:04:10;98249.13;;;12.91;59.01
4024;BME280;2026;51.002;13.668;2022-12-29T13:09:32;98247.03;;;12.93;58.84
4024;BME280;2026;51.002;13.668;2022-12-29T13:14:51;98251.06;;;12.74;58.91
4024;BME280;2026;51.002;13.668;2022-12-29T13:20:02;98262.19;;;12.81;58.58
4024;BME280;2026;51.002;13.668;2022-12-29T13:25:24;98259.56;;;12.81;58.69
4024;BME280;2026;51.002;13.668;2022-12-29T13:30:32;98265.91;;;12.85;58.82
4024;BME280;2026;51.002;13.668;2022-12-29T13:35:54;98271.97;;;12.86;58.39
4024;BME280;2026;51.002;13.668;2022-12-29T13:41:01;98275.66;;;12.85;58.91
4024;BME280;2026;51.002;13.668;2022-12-29T13:46:09;98269.94;;;12.71;59.01
4024;BME280;2026;51.002;13.668;2022-12-29T13:51:15;98279.09;;;12.68;59.28
4024;BME280;2026;51.002;13.668;2022-12-29T13:56:31;98274.13;;;12.66;59.31
4024;BME280;2026;51.002;13.668;2022-12-29T14:01:39;98277.22;;;12.63;59.50
4024;BME280;2026;51.002;13.668;2022-12-29T14:07:02;98278.25;;;12.62;59.96
4024;BME280;2026;51.002;13.668;2022-12-29T14:12:19;98256.13;;;12.58;59.71
4024;BME280;2026;51.002;13.668;2022-12-29T14:17:23;98284.25;;;12.58;59.29
4024;BME280;2026;51.002;13.668;2022-12-29T14:22:28;98279.09;;;12.46;59.67
4024;BME280;2026;51.002;13.668;2022-12-29T14:27:50;98285.16;;;12.46;59.86
4024;BME280;2026;51.002;13.668;2022-12-29T14:33:01;98279.41;;;12.49;59.47
4024;BME280;2026;51.002;13.668;2022-12-29T14:38:13;98292.66;;;12.37;60.12
4024;BME280;2026;51.002;13.668;2022-12-29T14:43:24;98296.34;;;12.36;60.50
4024;BME280;2026;51.002;13.668;2022-12-29T14:48:39;98311.78;;;12.33;60.77
4024;BME280;2026;51.002;13.668;2022-12-29T14:53:48;98321.44;;;12.27;60.55
4024;BME280;2026;51.002;13.668;2022-12-29T14:58:53;98322.63;;;12.19;60.61
4024;BME280;2026;51.002;13.668;2022-12-29T15:03:59;98313.56;;;12.27;60.13
4024;BME280;2026;51.002;13.668;2022-12-29T15:09:12;98315.16;;;12.28;60.14
4024;BME280;2026;51.002;13.668;2022-12-29T15:14:29;98335.13;;;12.29;60.39
4024;BME280;2026;51.002;13.668;2022-12-29T15:19:32;98336.81;;;12.18;61.06
4024;BME280;2026;51.002;13.668;2022-12-29T15:24:41;98335.38;;;12.10;61.54
4024;BME280;2026;51.002;13.668;2022-12-29T15:29:45;98348.53;;;12.10;61.48
4024;BME280;2026;51.002;13.668;2022-12-29T15:34:50;98350.97;;;12.00;61.96
4024;BME280;2026;51.002;13.668;2022-12-29T15:39:55;98346.28;;;12.02;60.93
4024;BME280;2026;51.002;13.668;2022-12-29T15:44:58;98363.56;;;11.98;60.94
4024;BME280;2026;51.002;13.668;2022-12-29T15:50:16;98383.75;;;11.97;60.54
4024;BME280;2026;51.002;13.668;2022-12-29T15:55:30;98388.69;;;11.94;61.22
4024;BME280;2026;51.002;13.668;2022-12-29T16:00:35;98390.06;;;11.79;61.13
4024;BME280;2026;51.002;13.668;2022-12-29T16:05:39;98392.66;;;11.79;61.25
4024;BME280;2026;51.002;13.668;2022-12-29T16:10:43;98398.38;;;11.76;62.02
4024;BME280;2026;51.002;13.668;2022-12-29T16:15:47;98406.63;;;11.68;62.07
4024;BME280;2026;51.002;13.668;2022-12-29T16:20:52;98403.47;;;11.66;61.80
4024;BME280;2026;51.002;13.668;2022-12-29T16:25:57;98403.34;;;11.61;61.24
4024;BME280;2026;51.002;13.668;2022-12-29T16:31:03;98419.34;;;11.59;62.35
4024;BME280;2026;51.002;13.668;2022-12-29T16:36:24;98419.47;;;11.52;62.42
4024;BME280;2026;51.002;13.668;2022-12-29T16:41:31;98441.28;;;11.41;62.67
4024;BME280;2026;51.002;13.668;2022-12-29T16:46:34;98436.75;;;11.36;62.78
4024;BME280;2026;51.002;13.668;2022-12-29T16:51:37;98427.03;;;11.37;62.83
4024;BME280;2026;51.002;13.668;2022-12-29T16:56:44;98449.53;;;11.33;63.20
4024;BME280;2026;51.002;13.668;2022-12-29T17:01:47;98433.66;;;11.27;64.01
4024;BME280;2026;51.002;13.668;2022-12-29T17:06:50;98440.06;;;11.20;64.23
4024;BME280;2026;51.002;13.668;2022-12-29T17:11:56;98444.28;;;11.21;64.53
4024;BME280;2026;51.002;13.668;2022-12-29T17:17:15;98441.56;;;11.15;64.33
4024;BME280;2026;51.002;13.668;2022-12-29T17:22:22;98447.28;;;11.12;64.64
4024;BME280;2026;51.002;13.668;2022-12-29T17:27:30;98452.41;;;10.95;65.23
4024;BME280;2026;51.002;13.668;2022-12-29T17:32:34;98464.16;;;10.81;65.87
4024;BME280;2026;51.002;13.668;2022-12-29T17:37:37;98468.84;;;10.79;66.34
4024;BME280;2026;51.002;13.668;2022-12-29T17:42:43;98466.97;;;10.67;66.76
4024;BME280;2026;51.002;13.668;2022-12-29T17:47:48;98468.47;;;10.75;66.90
4024;BME280;2026;51.002;13.668;2022-12-29T17:52:53;98479.75;;;10.76;66.56
4024;BME280;2026;51.002;13.668;2022-12-29T17:58:14;98482.63;;;10.74;66.93
4024;BME280;2026;51.002;13.668;2022-12-29T18:03:21;98475.88;;;10.66;67.52
4024;BME280;2026;51.002;13.668;2022-12-29T18:08:25;98491.44;;;10.49;68.16
4024;BME280;2026;51.002;13.668;2022-12-29T18:13:32;98480.97;;;10.49;68.36
4024;BME280;2026;51.002;13.668;2022-12-29T18:18:46;98474.47;;;10.52;68.51
4024;BME280;2026;51.002;13.668;2022-12-29T18:23:49;98485.97;;;10.39;69.38
4024;BME280;2026;51.002;13.668;2022-12-29T18:28:54;98486.06;;;10.32;69.81
4024;BME280;2026;51.002;13.668;2022-12-29T18:33:59;98485.72;;;10.28;69.97
4024;BME280;2026;51.002;13.668;2022-12-29T18:39:02;98493.00;;;10.26;69.98
4024;BME280;2026;51.002;13.668;2022-12-29T18:44:10;98495.38;;;10.28;70.00
4024;BME280;2026;51.002;13.668;2022-12-29T18:49:14;98484.41;;;10.07;70.75
4024;BME280;2026;51.002;13.668;2022-12-29T18:54:25;98478.34;;;10.07;70.64
4024;BME280;2026;51.002;13.668;2022-12-29T18:59:30;98466.16;;;10.43;68.83
4024;BME280;2026;51.002;13.668;2022-12-29T19:04:33;98469.53;;;10.31;69.18
4024;BME280;2026;51.002;13.668;2022-12-29T19:09:36;98480.84;;;10.32;69.00
4024;BME280;2026;51.002;13.668;2022-12-29T19:14:40;98469.28;;;10.21;69.27
4024;BME280;2026;51.002;13.668;2022-12-29T19:19:43;98470.78;;;10.29;68.99
4024;BME280;2026;51.002;13.668;2022-12-29T19:24:46;98456.00;;;10.35;68.56
4024;BME280;2026;51.002;13.668;2022-12-29T19:29:50;98478.22;;;10.32;68.55
4024;BME280;2026;51.002;13.668;2022-12-29T19:34:53;98469.66;;;10.25;68.28
4024;BME280;2026;51.002;13.668;2022-12-29T19:39:56;98478.41;;;10.18;68.46
4024;BME280;2026;51.002;13.668;2022-12-29T19:45:00;98478.19;;;10.20;67.96
4024;BME280;2026;51.002;13.668;2022-12-29T19:50:06;98477.69;;;10.11;68.07
4024;BME280;2026;51.002;13.668;2022-12-29T19:55:12;98472.63;;;10.28;66.73
4024;BME280;2026;51.002;13.668;2022-12-29T20:00:17;98468.16;;;10.29;66.40
4024;BME280;2026;51.002;13.668;2022-12-29T20:05:20;98456.34;;;10.26;66.64
4024;BME280;2026;51.002;13.668;2022-12-29T20:10:23;98453.56;;;10.21;66.54
4024;BME280;2026;51.002;13.668;2022-12-29T20:15:27;98458.91;;;10.14;66.41
4024;BME280;2026;51.002;13.668;2022-12-29T20:20:32;98471.41;;;10.12;66.30
4024;BME280;2026;51.002;13.668;2022-12-29T20:25:35;98477.91;;;10.10;66.63
4024;BME280;2026;51.002;13.668;2022-12-29T20:30:58;98466.81;;;9.96;66.93
4024;BME280;2026;51.002;13.668;2022-12-29T20:36:05;98472.66;;;9.79;67.60
4024;BME280;2026;51.002;13.668;2022-12-29T20:41:09;98476.44;;;9.83;67.15
4024;BME280;2026;51.002;13.668;2022-12-29T20:46:13;98481.75;;;9.76;67.50
4024;BME280;2026;51.002;13.668;2022-12-29T20:51:22;98479.34;;;9.75;67.46
4024;BME280;2026;51.002;13.668;2022-12-29T20:56:26;98495.19;;;9.80;67.16
4024;BME280;2026;51.002;13.668;2022-12-29T21:01:32;98493.53;;;9.67;67.42
4024;BME280;2026;51.002;13.668;2022-12-29T21:06:35;98492.59;;;9.61;67.86
4024;BME280;2026;51.002;13.668;2022-12-29T21:11:38;98506.28;;;9.63;67.80
4024;BME280;2026;51.002;13.668;2022-12-29T21:16:43;98503.94;;;9.55;68.43
4024;BME280;2026;51.002;13.668;2022-12-29T21:21:46;98506.38;;;9.50;68.52
4024;BME280;2026;51.002;13.668;2022-12-29T21:26:48;98526.56;;;9.43;68.63
4024;BME280;2026;51.002;13.668;2022-12-29T21:31:53;98531.81;;;9.43;68.86
4024;BME280;2026;51.002;13.668;2022-12-29T21:36:58;98529.47;;;9.34;69.01
4024;BME280;2026;51.002;13.668;2022-12-29T21:42:01;98535.25;;;9.18;69.25
4024;BME280;2026;51.002;13.668;2022-12-29T21:47:05;98544.97;;;9.10;69.30
4024;BME280;2026;51.002;13.668;2022-12-29T21:52:08;98554.13;;;9.01;69.60
4024;BME280;2026;51.002;13.668;2022-12-29T21:57:12;98558.22;;;8.90;70.41
4024;BME280;2026;51.002;13.668;2022-12-29T22:02:37;98555.03;;;8.88;69.91
4024;BME280;2026;51.002;13.668;2022-12-29T22:07:58;98564.94;;;8.79;71.03
4024;BME280;2026;51.002;13.668;2022-12-29T22:13:18;98572.94;;;8.85;70.90
4024;BME280;2026;51.002;13.668;2022-12-29T22:18:22;98578.25;;;8.71;71.07
4024;BME280;2026;51.002;13.668;2022-12-29T22:23:25;98588.84;;;8.83;70.34
4024;BME280;2026;51.002;13.668;2022-12-29T22:28:28;98586.28;;;8.76;70.84
4024;BME280;2026;51.002;13.668;2022-12-29T22:33:32;98593.66;;;8.86;70.24
4024;BME280;2026;51.002;13.668;2022-12-29T22:38:35;98589.84;;;8.82;70.31
4024;BME280;2026;51.002;13.668;2022-12-29T22:43:38;98601.56;;;8.73;70.88
4024;BME280;2026;51.002;13.668;2022-12-29T22:48:43;98588.91;;;8.69;71.14
4024;BME280;2026;51.002;13.668;2022-12-29T22:53:47;98587.75;;;8.65;70.89
4024;BME280;2026;51.002;13.668;2022-12-29T22:58:50;98577.50;;;8.64;70.61
4024;BME280;2026;51.002;13.668;2022-12-29T23:03:54;98595.59;;;8.65;70.41
4024;BME280;2026;51.002;13.668;2022-12-29T23:09:20;98607.19;;;8.69;70.72
4024;BME280;2026;51.002;13.668;2022-12-29T23:14:23;98616.28;;;8.67;70.39
4024;BME280;2026;51.002;13.668;2022-12-29T23:19:28;98610.06;;;8.68;70.27
4024;BME280;2026;51.002;13.668;2022-12-29T23:24:30;98599.59;;;8.68;70.46
4024;BME280;2026;51.002;13.668;2022-12-29T23:29:33;98607.75;;;8.78;70.11
4024;BME280;2026;51.002;13.668;2022-12-29T23:34:38;98600.34;;;8.75;70.19
4024;BME280;2026;51.002;13.668;2022-12-29T23:39:40;98591.16;;;8.66;70.11
4024;BME280;2026;51.002;13.668;2022-12-29T23:44:43;98611.44;;;8.71;69.97
4024;BME280;2026;51.002;13.668;2022-12-29T23:49:48;98625.94;;;8.66;69.84
4024;BME280;2026;51.002;13.668;2022-12-29T23:54:51;98633.34;;;8.69;69.90
4024;BME280;2026;51.002;13.668;2022-12-29T23:59:54;98638.41;;;8.64;69.79
